Not for real navigation | The accuracy of this data is not assured | See disclaimer for more information
ICAO NAME COUNTRY WIND Kt GUST Kt VIS TEMP/DEW BARO
ENSL 57 0 8000 7/3 28.67
ENSL 170450Z AUTO 23057KT 8000NDV BKN020/// 07/03 Q0971 W05/S6
EHAK 54 67 9999 7/2 29.23
EHAK 170455Z AUTO 24054G67KT //// // FEW027/// 07/02 Q0990 RE//
ENLE 53 0 9999 7/1 29.03
ENLE 170420Z 22053KT 9999 BKN040 07/01 Q0983 W08/S7
ENWV 52 62 9999 7/2 29.12
ENWV 170450Z AUTO 23052G62KT 9999NDV BKN034/// 07/02 Q0986 W///S7
KMWN Mount Washington NH United States 52 0 9999 -12/-12 29.92
KMWN 170456Z COR 27052KT 0SM -SHSN FZFG BLSN VV000 M12/M12 RMK SHSNB05 VRY LGT ICG 411051140

Show more

Close Menu